createdAt,value
2019-02-14T00:01:41.699Z,289.82
2019-02-14T00:05:06.271Z,285.52
2019-02-14T00:11:37.409Z,284.00
2019-02-14T00:15:01.898Z,282.17
2019-02-14T00:21:32.816Z,277.07
2019-02-14T00:24:57.128Z,284.98
2019-02-14T00:31:28.125Z,287.30
2019-02-14T00:37:58.672Z,285.65
2019-02-14T00:44:29.386Z,288.30
2019-02-14T00:50:59.875Z,291.15
2019-02-14T00:54:24.308Z,283.43
2019-02-14T01:00:55.082Z,273.95
2019-02-14T01:07:25.670Z,270.45
2019-02-14T01:10:50.254Z,272.23
2019-02-14T01:17:21.756Z,267.40
2019-02-14T01:20:46.486Z,271.50
2019-02-14T01:27:17.483Z,269.85
2019-02-14T01:30:40.467Z,264.10
2019-02-14T01:33:10.507Z,271.85
2019-02-14T01:39:41.270Z,266.20
2019-02-14T01:46:11.456Z,261.60
2019-02-14T01:49:35.713Z,263.27
2019-02-14T01:56:05.978Z,255.83
2019-02-14T02:02:36.568Z,259.18
2019-02-14T02:06:00.941Z,260.75
2019-02-14T02:12:32.123Z,257.70
2019-02-14T02:19:03.634Z,252.45
2019-02-14T02:22:28.266Z,251.18
2019-02-14T02:28:59.345Z,256.93
2019-02-14T02:35:30.120Z,262.93
2019-02-14T02:38:54.595Z,264.70
2019-02-14T02:45:25.447Z,264.45
2019-02-14T02:48:50.795Z,272.98
2019-02-14T02:55:21.340Z,262.82
2019-02-14T03:01:52.365Z,263.23
2019-02-14T03:05:16.690Z,258.57
2019-02-14T03:11:47.460Z,259.90
2019-02-14T03:15:12.085Z,264.35
2019-02-14T03:21:42.570Z,256.05
2019-02-14T03:28:13.842Z,256.63
2019-02-14T03:31:38.286Z,249.85
2019-02-14T03:38:09.578Z,257.00
2019-02-14T03:44:40.965Z,253.63
2019-02-14T03:51:11.968Z,247.93
2019-02-14T03:57:42.643Z,257.95
2019-02-14T04:01:07.476Z,252.70
2019-02-14T04:07:38.509Z,253.85
2019-02-14T04:11:02.956Z,247.22
2019-02-14T04:17:33.908Z,247.90
2019-02-14T04:24:04.831Z,237.57
2019-02-14T04:30:35.279Z,242.28
2019-02-14T04:37:06.510Z,245.02
2019-02-14T04:39:36.463Z,247.17
2019-02-14T04:46:07.545Z,248.10
2019-02-14T04:52:38.804Z,239.70
2019-02-14T04:56:03.241Z,245.97
2019-02-14T05:02:34.603Z,233.30
2019-02-14T05:05:59.001Z,232.32
2019-02-14T05:12:30.027Z,230.85
2019-02-14T05:19:00.868Z,233.28
2019-02-14T05:25:32.357Z,234.27
2019-02-14T05:32:03.486Z,231.35
2019-02-14T05:38:34.606Z,237.00
2019-02-14T05:41:04.697Z,234.47
2019-02-14T05:47:35.987Z,239.08
2019-02-14T05:51:00.635Z,239.97
2019-02-14T05:57:31.729Z,240.85
2019-02-14T06:00:56.537Z,237.30
2019-02-14T06:07:28.135Z,240.13
2019-02-14T06:13:59.405Z,243.00
2019-02-14T06:20:29.989Z,242.77
2019-02-14T06:27:00.585Z,239.42
2019-02-14T06:33:31.761Z,243.95
2019-02-14T06:40:02.531Z,239.08
2019-02-14T06:46:33.487Z,236.95
2019-02-14T06:53:04.080Z,241.73
2019-02-14T06:56:28.290Z,240.03
2019-02-14T07:02:59.469Z,251.35
2019-02-14T07:06:24.069Z,254.95
2019-02-14T07:12:54.702Z,266.85
2019-02-14T07:16:19.122Z,263.50
2019-02-14T07:22:49.382Z,283.10
2019-02-14T07:26:13.997Z,283.98
2019-02-14T07:32:46.029Z,294.35
2019-02-14T07:39:17.304Z,304.77
2019-02-14T07:41:47.267Z,310.20
2019-02-14T07:48:18.443Z,329.38
2019-02-14T07:51:42.859Z,317.77
2019-02-14T07:58:13.390Z,328.75
2019-02-14T08:01:38.131Z,331.07
2019-02-14T08:08:09.369Z,338.15
2019-02-14T08:11:34.054Z,339.75
2019-02-14T08:18:05.034Z,350.68
2019-02-14T08:21:29.406Z,347.10
2019-02-14T08:27:59.854Z,367.40
2019-02-14T08:31:24.307Z,365.10
2019-02-14T08:37:55.131Z,380.25
2019-02-14T08:44:25.921Z,389.77
2019-02-14T08:50:57.125Z,385.05
2019-02-14T08:57:27.760Z,400.50
2019-02-14T09:04:00.522Z,415.23
2019-02-14T09:07:25.045Z,420.80
2019-02-14T09:13:55.933Z,427.90
2019-02-14T09:17:20.388Z,420.70
2019-02-14T09:23:51.026Z,444.93
2019-02-14T09:27:15.393Z,453.20
2019-02-14T09:33:46.486Z,462.32
2019-02-14T09:40:18.481Z,470.75
2019-02-14T09:46:49.643Z,473.28
2019-02-14T09:53:20.007Z,474.12
2019-02-14T09:56:44.871Z,484.20
2019-02-14T10:03:15.561Z,501.33
2019-02-14T10:06:39.873Z,504.27
2019-02-14T10:13:10.654Z,520.85
2019-02-14T10:19:41.743Z,521.35
2019-02-14T10:23:06.025Z,512.30
2019-02-14T10:29:36.953Z,528.05
2019-02-14T10:32:44.406Z,537.00
2019-02-14T10:39:48.504Z,534.10
2019-02-14T10:50:19.300Z,556.00
2019-02-14T10:56:49.578Z,540.73
2019-02-14T11:00:13.716Z,536.30
2019-02-14T11:06:43.749Z,554.50
2019-02-14T11:13:13.830Z,573.77
2019-02-14T11:19:43.900Z,580.30
2019-02-14T11:26:15.037Z,573.97
2019-02-14T11:32:45.764Z,581.53
2019-02-14T11:35:15.888Z,586.75
2019-02-14T11:41:46.910Z,588.25
2019-02-14T11:48:17.738Z,582.70
2019-02-14T11:54:48.346Z,571.22
2019-02-14T11:58:12.737Z,573.95
2019-02-14T12:04:43.668Z,584.30
2019-02-14T12:08:09.497Z,581.37
2019-02-14T12:14:40.410Z,591.30
2019-02-14T12:21:11.082Z,621.05
2019-02-14T12:27:41.497Z,624.00
2019-02-14T12:34:12.158Z,651.30
2019-02-14T12:36:41.970Z,637.45
2019-02-14T12:43:12.139Z,658.77
2019-02-14T12:49:42.933Z,659.52
2019-02-14T12:53:07.338Z,669.13
2019-02-14T12:59:37.743Z,673.42
2019-02-14T13:03:02.227Z,673.43
2019-02-14T13:09:33.169Z,689.90
2019-02-14T13:16:03.804Z,684.20
2019-02-14T13:22:36.326Z,696.20
2019-02-14T13:29:06.729Z,705.27
2019-02-14T13:32:30.861Z,701.80
2019-02-14T13:39:02.022Z,700.25
2019-02-14T13:45:32.538Z,717.33
2019-02-14T13:52:03.118Z,716.92
2019-02-14T13:58:34.314Z,722.97
2019-02-14T14:05:05.642Z,735.17
2019-02-14T14:11:36.498Z,731.83
2019-02-14T14:18:06.730Z,754.30
2019-02-14T14:24:37.123Z,739.43
2019-02-14T14:28:01.689Z,727.83
2019-02-14T14:34:32.082Z,715.80
2019-02-14T14:41:03.404Z,712.77
2019-02-14T14:47:33.754Z,719.00
2019-02-14T14:54:04.528Z,722.67
2019-02-14T15:00:35.622Z,739.25
2019-02-14T15:07:06.685Z,742.05
2019-02-14T15:13:37.566Z,746.53
2019-02-14T15:20:10.296Z,743.15
2019-02-14T15:23:35.183Z,739.42
2019-02-14T15:30:06.276Z,742.75
2019-02-14T15:36:37.299Z,721.60
2019-02-14T15:43:08.617Z,716.27
2019-02-14T15:49:39.320Z,698.58
2019-02-14T15:56:10.209Z,692.63
2019-02-14T16:02:40.797Z,698.08
2019-02-14T16:06:06.180Z,703.20
2019-02-14T16:12:37.152Z,690.30
2019-02-14T16:19:08.863Z,662.33
2019-02-14T16:22:34.335Z,661.25
2019-02-14T16:29:05.254Z,641.27
2019-02-14T16:32:29.526Z,634.20
2019-02-14T16:39:01.384Z,611.67
2019-02-14T16:45:32.322Z,600.72
2019-02-14T16:52:03.180Z,585.27
2019-02-14T16:58:52.844Z,549.33
2019-02-14T17:05:33.994Z,535.87
2019-02-14T17:12:04.327Z,520.17
2019-02-14T17:15:28.646Z,507.25
2019-02-14T17:18:17.643Z,501.98
2019-02-14T17:20:47.337Z,490.62
2019-02-14T17:27:48.949Z,489.48
2019-02-14T17:30:18.777Z,480.27
2019-02-14T17:33:42.582Z,488.52
2019-02-14T17:40:12.800Z,461.53
2019-02-14T17:46:42.668Z,459.90
2019-02-14T17:53:12.827Z,445.00
2019-02-14T17:59:43.586Z,440.67
2019-02-14T18:06:15.426Z,438.77
2019-02-14T18:12:45.751Z,431.75
2019-02-14T18:16:09.998Z,424.95
2019-02-14T18:22:40.740Z,432.50
2019-02-14T18:29:11.412Z,435.63
2019-02-14T18:35:42.100Z,438.20
2019-02-14T18:42:12.870Z,442.33
2019-02-14T18:45:37.342Z,439.53
2019-02-14T18:52:08.220Z,442.42
2019-02-14T18:55:32.622Z,446.55
2019-02-14T19:02:03.617Z,450.35
2019-02-14T19:05:28.273Z,456.85
2019-02-14T19:11:58.985Z,441.15
2019-02-14T19:15:23.640Z,441.02
2019-02-14T19:21:54.851Z,428.08
2019-02-14T19:24:24.853Z,429.62
2019-02-14T19:30:55.975Z,410.27
2019-02-14T19:37:26.558Z,396.98
2019-02-14T19:43:57.493Z,395.00
2019-02-14T19:50:28.462Z,386.18
2019-02-14T19:56:59.455Z,383.95
2019-02-14T20:03:31.934Z,377.43
2019-02-14T20:10:02.099Z,370.75
2019-02-14T20:16:33.146Z,359.40
2019-02-14T20:19:57.726Z,359.07
2019-02-14T20:26:28.211Z,360.10
2019-02-14T20:33:04.937Z,363.00
2019-02-14T20:36:25.132Z,360.02
2019-02-14T20:42:55.971Z,367.57
2019-02-14T20:46:20.565Z,370.17
2019-02-14T20:52:51.081Z,374.92
2019-02-14T20:59:22.213Z,377.07
2019-02-14T21:05:52.897Z,387.75
2019-02-14T21:12:24.108Z,378.37
2019-02-14T21:15:48.594Z,376.05
2019-02-14T21:22:19.600Z,381.40
2019-02-14T21:25:25.619Z,382.65
2019-02-14T21:27:55.549Z,388.10
2019-02-14T21:34:26.490Z,381.32
2019-02-14T21:40:57.106Z,367.15
2019-02-14T21:47:27.956Z,369.37
2019-02-14T21:53:58.724Z,368.63
2019-02-14T22:00:30.178Z,374.48
2019-02-14T22:07:01.171Z,363.45
2019-02-14T22:13:32.038Z,358.93
2019-02-14T22:20:04.368Z,364.48
2019-02-14T22:23:28.750Z,354.30
2019-02-14T22:29:59.161Z,338.30
2019-02-14T22:36:30.330Z,337.72
2019-02-14T22:43:01.276Z,332.75
2019-02-14T22:49:32.393Z,328.27
2019-02-14T22:56:03.332Z,332.37
2019-02-14T22:59:27.971Z,326.85
2019-02-14T23:05:58.377Z,319.15
2019-02-14T23:09:10.608Z,315.25
2019-02-14T23:15:41.226Z,324.60
2019-02-14T23:22:11.453Z,323.00
2019-02-14T23:25:35.757Z,320.07
2019-02-14T23:32:06.071Z,319.82
2019-02-14T23:38:36.462Z,325.55
2019-02-14T23:42:00.621Z,320.65
2019-02-14T23:48:30.963Z,324.05
2019-02-14T23:51:56.509Z,309.07
2019-02-14T23:58:27.268Z,313.37
